Terminal Aerodrome Forecast
Issued by NWS

Home | Current Version | Previous Version | Text Only | Print | Product List | Glossary On
Versions: 1 2 3 4 5 6 7 8 9 10 11 12 13 14
552
FTUS45 KRIW 201120
TAFJAC
TAF
KJAC 201120Z 2012/2112 VRB05KT P6SM SCT100 WS015/22025KT
     FM201500 18006KT P6SM VCSH BKN060 WS015/22025KT
     FM201800 20011KT 5SM -SHRASN SCT025 BKN035
     FM202000 20015G25KT 3SM -SHSNRA SCT015 OVC030
     FM202200 20020G30KT P6SM VCSH BKN035
     FM210200 20014G20KT 6SM -SN BR SCT020 BKN040
      AMD LTD TO CLD VIS AND WIND=

USA.gov is the U.S. government's official web portal to all federal, state and local government web resources and services.